Terminal Aerodrome Forecast
Issued by NWS

Home | Current Version | Previous Version | Text Only | Print | Product List | Glossary On
Versions: 1 2 3 4 5 6 7 8 9 10 11 12 13
000
FTUS46 KOTX 312324
TAFPUW
TAF
KPUW 312324Z 0100/0124 27010KT P6SM SCT200
     FM010300 26005KT P6SM FEW120 OVC150
     FM010900 26006KT P6SM SCT200
     FM012000 24010KT P6SM BKN200=

USA.gov is the U.S. government's official web portal to all federal, state and local government web resources and services.